Zova, Israel
Current Conditions -  °F | °C
As of 12:20 AM on Sunday 23 Nov 2014 (Local Time) from LLBG Reporting Station
Scattered Clouds Scattered Clouds  
Wind Chill: 64°   Ceiling: Unl
Heat Index: 64°   Visibility: 6mi
Dew Point: 48°   Wind: 10mph
Humidity: 56%   Direction: 280°W
Pressure: 30"   Gusts: NA
Location:  31.78°N, 35.12°E
Report Text: LLBG 222120Z 28009KT 9999 SCT050 18/09 Q1016 NOSIG
Loading
Personal Weather Stations






























Interactive Weather Map New forecast layout! Learn more

10-Day Weather Forecast

Advertisements
Track Severe Weather on mobile